createdAt,value
2018-02-24T07:28:23.951Z,9.30
2018-02-24T07:30:50.568Z,7.28
2018-02-24T07:33:17.448Z,10.35
2018-02-24T07:35:44.281Z,7.60
2018-02-24T07:38:12.369Z,10.68
2018-02-24T07:40:40.383Z,8.45
2018-02-24T07:43:07.041Z,7.03
2018-02-24T07:45:33.457Z,7.62
2018-02-24T07:48:01.832Z,9.20
2018-02-24T07:50:28.733Z,9.55
2018-02-24T07:52:55.191Z,8.82
2018-02-24T07:55:21.736Z,7.40
2018-02-24T07:57:50.472Z,8.93
2018-02-24T08:00:17.021Z,8.88
2018-02-24T08:02:44.404Z,9.02
2018-02-24T08:05:11.281Z,9.00
2018-02-24T08:07:37.797Z,6.55
2018-02-24T08:10:04.687Z,7.28
2018-02-24T08:12:32.168Z,9.20
2018-02-24T08:14:58.955Z,9.63
2018-02-24T08:17:27.716Z,9.00
2018-02-24T08:19:54.763Z,8.75
2018-02-24T08:22:21.352Z,8.63
2018-02-24T08:24:49.370Z,8.68
2018-02-24T08:27:15.924Z,8.88
2018-02-24T08:29:43.858Z,9.27
2018-02-24T08:32:10.835Z,8.48
2018-02-24T08:34:37.449Z,9.77
2018-02-24T08:37:04.621Z,11.15
2018-02-24T08:39:34.781Z,11.27
2018-02-24T08:42:05.271Z,10.88
2018-02-24T08:44:31.808Z,10.55
2018-02-24T08:46:58.383Z,10.10
2018-02-24T08:49:27.018Z,10.27
2018-02-24T08:51:55.086Z,14.48
2018-02-24T08:54:22.234Z,13.88
2018-02-24T08:56:48.791Z,9.13
2018-02-24T08:59:17.593Z,10.20
2018-02-24T09:01:44.006Z,11.88
2018-02-24T09:04:12.070Z,10.18
2018-02-24T09:06:38.600Z,13.95
2018-02-24T09:09:05.208Z,11.65
2018-02-24T09:11:31.786Z,9.63
2018-02-24T09:13:58.918Z,10.73
2018-02-24T09:16:25.422Z,11.90
2018-02-24T09:18:52.202Z,10.88
2018-02-24T09:21:18.738Z,10.25
2018-02-24T09:23:46.256Z,11.00
2018-02-24T09:26:12.783Z,8.77
2018-02-24T09:28:41.413Z,9.07
2018-02-24T09:31:08.317Z,9.10
2018-02-24T09:33:38.465Z,10.73
2018-02-24T09:36:05.053Z,11.50
2018-02-24T09:38:33.699Z,11.38
2018-02-24T09:41:00.262Z,11.32
2018-02-24T09:43:27.798Z,10.57
2018-02-24T09:45:54.867Z,10.65
2018-02-24T09:48:21.749Z,10.68
2018-02-24T09:50:48.890Z,11.82
2018-02-24T09:53:15.429Z,11.85
2018-02-24T09:55:41.909Z,11.88
2018-02-24T09:58:09.400Z,11.75
2018-02-24T10:00:40.351Z,11.77
2018-02-24T10:03:07.342Z,10.70
2018-02-24T10:05:34.173Z,10.63
2018-02-24T10:08:01.328Z,10.32
2018-02-24T10:10:28.174Z,11.75
2018-02-24T10:12:55.117Z,10.38
2018-02-24T10:15:23.108Z,11.38
2018-02-24T10:17:49.986Z,10.18
2018-02-24T10:20:16.841Z,9.95
2018-02-24T10:22:44.580Z,11.38
2018-02-24T10:25:11.472Z,11.50
2018-02-24T10:27:39.463Z,11.80
2018-02-24T10:30:06.284Z,11.50
2018-02-24T10:32:34.369Z,10.23
2018-02-24T10:35:04.269Z,9.57
2018-02-24T10:37:30.860Z,9.30
2018-02-24T10:39:59.884Z,9.98
2018-02-24T10:42:27.748Z,10.70
2018-02-24T10:44:54.824Z,9.85
2018-02-24T10:47:21.264Z,10.40
2018-02-24T10:49:49.391Z,10.45
2018-02-24T10:52:15.867Z,11.38
2018-02-24T10:54:42.766Z,10.75
2018-02-24T10:57:09.625Z,9.20
2018-02-24T10:59:36.182Z,11.20
2018-02-24T11:02:03.900Z,10.52
2018-02-24T11:04:32.554Z,11.30
2018-02-24T11:06:59.073Z,13.70
2018-02-24T11:09:26.224Z,11.98
2018-02-24T11:11:53.059Z,11.55
2018-02-24T11:14:19.979Z,11.05
2018-02-24T11:16:47.116Z,10.70
2018-02-24T11:19:13.665Z,12.77
2018-02-24T11:21:42.283Z,13.62
2018-02-24T11:24:12.676Z,13.60
2018-02-24T11:26:39.973Z,12.77
2018-02-24T11:29:06.780Z,12.35
2018-02-24T11:31:33.368Z,11.05
2018-02-24T11:34:00.233Z,10.60
2018-02-24T11:36:27.644Z,11.20
2018-02-24T11:38:54.224Z,10.82
2018-02-24T11:41:21.657Z,13.25
2018-02-24T11:43:48.507Z,13.40
2018-02-24T11:46:15.952Z,14.93
2018-02-24T11:48:42.765Z,13.23
2018-02-24T11:51:10.949Z,13.25
2018-02-24T11:53:38.616Z,11.15
2018-02-24T11:56:06.051Z,11.82
2018-02-24T11:58:32.680Z,12.00
2018-02-24T12:00:59.806Z,12.50
2018-02-24T12:03:26.409Z,14.43
2018-02-24T12:05:54.113Z,13.20
2018-02-24T12:08:20.560Z,14.23
2018-02-24T12:10:47.127Z,12.98
2018-02-24T12:13:14.138Z,13.77
2018-02-24T12:15:40.949Z,16.30
2018-02-24T12:18:11.069Z,15.65
2018-02-24T12:20:37.601Z,14.32
2018-02-24T12:23:04.461Z,12.68
2018-02-24T12:25:32.660Z,12.00
2018-02-24T12:28:00.888Z,13.02
2018-02-24T12:30:28.916Z,11.38
2018-02-24T12:32:55.436Z,15.93
2018-02-24T12:35:23.682Z,12.52
2018-02-24T12:37:50.729Z,18.52
2018-02-24T12:40:18.144Z,19.98
2018-02-24T12:42:44.662Z,16.48
2018-02-24T12:45:12.165Z,13.93
2018-02-24T12:47:40.824Z,13.38
2018-02-24T12:50:07.657Z,14.30
2018-02-24T12:52:34.303Z,15.45
2018-02-24T12:55:02.696Z,15.23
2018-02-24T12:57:29.389Z,16.77
2018-02-24T12:59:56.044Z,15.73
2018-02-24T13:02:23.184Z,15.25
2018-02-24T13:04:49.690Z,15.13
2018-02-24T13:07:17.381Z,14.50
2018-02-24T13:09:45.440Z,15.95
2018-02-24T13:12:12.048Z,14.48
2018-02-24T13:14:39.817Z,14.10
2018-02-24T13:17:06.347Z,16.40
2018-02-24T13:19:34.517Z,16.25
2018-02-24T13:22:01.877Z,14.43
2018-02-24T13:24:28.275Z,16.60
2018-02-24T13:26:54.949Z,17.05
2018-02-24T13:29:22.392Z,15.02
2018-02-24T13:31:48.921Z,14.95
2018-02-24T13:34:15.337Z,23.17
2018-02-24T13:36:41.993Z,19.25
2018-02-24T13:39:08.523Z,13.95
2018-02-24T13:41:35.418Z,16.27
2018-02-24T13:44:02.285Z,16.30
2018-02-24T13:46:29.352Z,16.58
2018-02-24T13:48:58.033Z,16.83
2018-02-24T13:51:24.560Z,18.35
2018-02-24T13:53:51.116Z,18.98
2018-02-24T13:56:17.900Z,16.62
2018-02-24T13:58:44.483Z,15.15
2018-02-24T14:01:11.004Z,15.10
2018-02-24T14:03:37.579Z,16.08
2018-02-24T14:06:04.166Z,17.25
2018-02-24T14:08:30.652Z,18.60
2018-02-24T14:10:58.354Z,19.05
2018-02-24T14:13:24.912Z,16.90
2018-02-24T14:15:51.493Z,16.95
2018-02-24T14:18:18.632Z,16.77
2018-02-24T14:20:45.154Z,20.75
2018-02-24T14:23:11.971Z,16.83
2018-02-24T14:25:41.903Z,18.08
2018-02-24T14:28:08.704Z,17.45
2018-02-24T14:30:35.289Z,17.80
2018-02-24T14:33:02.705Z,18.75
2018-02-24T14:35:30.468Z,18.98
2018-02-24T14:37:57.020Z,18.60
2018-02-24T14:40:23.901Z,18.55
2018-02-24T14:42:50.805Z,19.87
2018-02-24T14:45:17.944Z,23.12
2018-02-24T14:47:45.444Z,21.12
2018-02-24T14:50:13.867Z,23.23
2018-02-24T14:52:43.296Z,24.02
2018-02-24T14:55:10.808Z,21.65
2018-02-24T14:57:42.874Z,21.05
2018-02-24T15:00:10.017Z,21.87
2018-02-24T15:02:36.478Z,23.52
2018-02-24T15:05:03.044Z,23.33
2018-02-24T15:07:29.640Z,19.05
2018-02-24T15:09:56.704Z,23.10
2018-02-24T15:12:23.301Z,22.83
2018-02-24T15:14:49.884Z,21.73
2018-02-24T15:17:17.571Z,20.40
2018-02-24T15:19:49.149Z,20.58
2018-02-24T15:22:17.113Z,21.58
2018-02-24T15:24:43.701Z,21.58
2018-02-24T15:27:10.833Z,19.42
2018-02-24T15:29:37.968Z,21.55
2018-02-24T15:32:04.490Z,22.00
2018-02-24T15:34:30.976Z,21.80
2018-02-24T15:36:58.788Z,19.27
2018-02-24T15:39:26.535Z,20.52
2018-02-24T15:41:54.676Z,21.35
2018-02-24T15:44:24.516Z,20.30
2018-02-24T15:46:51.012Z,20.20
2018-02-24T15:49:19.696Z,21.60
2018-02-24T15:51:46.562Z,22.05
2018-02-24T15:54:13.077Z,19.35
2018-02-24T15:56:41.311Z,20.10
2018-02-24T15:59:08.579Z,18.27
2018-02-24T16:01:39.513Z,20.27
2018-02-24T16:04:05.920Z,19.37
2018-02-24T16:06:34.044Z,20.25
2018-02-24T16:09:00.685Z,20.73
2018-02-24T16:11:27.725Z,20.20
2018-02-24T16:13:54.097Z,19.37
2018-02-24T16:16:21.221Z,19.80
2018-02-24T16:18:47.666Z,20.10
2018-02-24T16:21:14.325Z,20.83
2018-02-24T16:23:42.586Z,21.48
2018-02-24T16:26:09.107Z,19.48
2018-02-24T16:28:36.572Z,21.05
2018-02-24T16:31:03.185Z,20.50
2018-02-24T16:33:32.624Z,20.02
2018-02-24T16:35:59.596Z,17.75
2018-02-24T16:38:26.070Z,18.25
2018-02-24T16:40:53.242Z,20.12
2018-02-24T16:43:19.822Z,18.70
2018-02-24T16:45:47.287Z,18.15
2018-02-24T16:48:15.367Z,17.87
2018-02-24T16:50:43.029Z,18.00
2018-02-24T16:53:09.788Z,19.05
2018-02-24T16:55:36.231Z,16.95
2018-02-24T16:58:02.742Z,17.65
2018-02-24T17:00:29.251Z,16.65
2018-02-24T17:02:56.084Z,18.55
2018-02-24T17:05:24.728Z,18.50
2018-02-24T17:07:51.247Z,20.37
2018-02-24T17:10:18.143Z,20.48
2018-02-24T17:12:44.928Z,18.05
2018-02-24T17:15:11.784Z,19.48
2018-02-24T17:17:38.303Z,16.25
2018-02-24T17:20:04.845Z,16.30
2018-02-24T17:22:31.731Z,16.75
2018-02-24T17:24:58.144Z,16.98
2018-02-24T17:27:24.791Z,17.55
2018-02-24T17:29:51.692Z,17.30
2018-02-24T17:32:19.364Z,17.08
2018-02-24T17:34:47.569Z,16.58
2018-02-24T17:37:14.312Z,19.20
2018-02-24T17:39:41.120Z,18.85
2018-02-24T17:42:09.241Z,19.35
2018-02-24T17:44:37.262Z,19.17
2018-02-24T17:47:03.833Z,22.10
2018-02-24T17:49:30.398Z,23.33
2018-02-24T17:51:58.547Z,18.60
2018-02-24T17:54:28.632Z,19.90
2018-02-24T17:56:56.695Z,19.98
2018-02-24T17:59:23.333Z,17.90
2018-02-24T18:01:53.475Z,18.10
2018-02-24T18:04:20.325Z,17.27
2018-02-24T18:06:46.885Z,16.80
2018-02-24T18:09:14.662Z,18.83
2018-02-24T18:11:41.550Z,16.50
2018-02-24T18:14:08.680Z,19.20
2018-02-24T18:16:36.089Z,16.65
2018-02-24T18:19:02.881Z,16.92
2018-02-24T18:21:30.332Z,20.95
2018-02-24T18:23:59.074Z,18.75
2018-02-24T18:29:15.488Z,17.35
2018-02-24T18:31:42.046Z,17.73
2018-02-24T18:34:08.813Z,16.60
2018-02-24T18:36:35.671Z,17.45
2018-02-24T18:39:03.798Z,17.62
2018-02-24T18:41:31.236Z,18.20
2018-02-24T18:43:58.999Z,16.75
2018-02-24T18:46:25.905Z,18.00
2018-02-24T18:48:52.333Z,17.40
2018-02-24T18:51:18.860Z,16.92
2018-02-24T18:53:46.076Z,17.67
2018-02-24T18:56:12.554Z,15.65
2018-02-24T18:58:39.383Z,15.60
2018-02-24T19:01:05.992Z,17.87
2018-02-24T19:03:33.680Z,14.75
2018-02-24T19:06:00.300Z,15.40
2018-02-24T19:08:28.068Z,14.52
2018-02-24T19:10:56.099Z,15.25
2018-02-24T19:13:22.978Z,13.80
2018-02-24T19:15:50.021Z,15.43
2018-02-24T19:18:16.646Z,13.43
2018-02-24T19:20:43.216Z,14.75
2018-02-24T19:23:09.648Z,13.25
2018-02-24T19:25:39.676Z,14.10
2018-02-24T19:28:06.200Z,14.60
2018-02-24T19:30:32.724Z,12.75
2018-02-24T19:32:59.229Z,12.55
2018-02-24T19:35:29.768Z,12.90
2018-02-24T19:37:56.316Z,12.98
2018-02-24T19:40:22.836Z,12.65
2018-02-24T19:42:49.368Z,14.38
2018-02-24T19:45:15.900Z,12.90
2018-02-24T19:47:42.699Z,11.65
2018-02-24T19:50:09.237Z,13.02
2018-02-24T19:52:35.789Z,14.20
2018-02-24T19:55:02.406Z,13.23
2018-02-24T19:57:29.452Z,14.00
2018-02-24T19:59:56.037Z,12.73
2018-02-24T20:02:22.528Z,14.00
2018-02-24T20:04:49.068Z,12.95
2018-02-24T20:07:16.010Z,13.68
2018-02-24T20:09:42.485Z,12.60
2018-02-24T20:12:09.960Z,15.15
2018-02-24T20:14:37.660Z,13.75
2018-02-24T20:17:04.492Z,14.63
2018-02-24T20:19:33.582Z,17.27
2018-02-24T20:22:01.453Z,15.52
2018-02-24T20:24:28.421Z,15.40
2018-02-24T20:26:55.322Z,16.50
2018-02-24T20:29:23.072Z,16.25
2018-02-24T20:31:51.192Z,18.40
2018-02-24T20:34:17.665Z,15.27
2018-02-24T20:36:44.416Z,18.80
2018-02-24T20:39:11.004Z,15.80
2018-02-24T20:41:37.575Z,15.32
2018-02-24T20:44:04.517Z,15.02
2018-02-24T20:46:31.687Z,16.23
2018-02-24T20:48:59.132Z,16.30
2018-02-24T20:51:26.320Z,16.60
2018-02-24T20:53:53.383Z,16.05
2018-02-24T20:56:21.254Z,17.30
2018-02-24T20:58:50.436Z,15.48
2018-02-24T21:01:18.624Z,17.37
2018-02-24T21:03:45.721Z,15.65
2018-02-24T21:06:13.177Z,17.42
2018-02-24T21:08:40.245Z,17.45
2018-02-24T21:11:06.732Z,16.70
2018-02-24T21:13:33.601Z,17.05
2018-02-24T21:16:00.120Z,18.62
2018-02-24T21:18:26.680Z,16.92
2018-02-24T21:20:53.286Z,17.75
2018-02-24T21:23:20.032Z,16.52
2018-02-24T21:25:46.608Z,16.77
2018-02-24T21:28:14.347Z,18.73
2018-02-24T21:30:40.844Z,17.80
2018-02-24T21:33:07.435Z,17.35
2018-02-24T21:35:34.606Z,15.65
2018-02-24T21:38:02.269Z,15.32
2018-02-24T21:40:29.109Z,15.93
2018-02-24T21:42:56.293Z,15.45
2018-02-24T21:45:23.226Z,15.68
2018-02-24T21:47:50.252Z,16.90
2018-02-24T21:50:17.100Z,17.30
2018-02-24T21:52:43.929Z,18.55
2018-02-24T21:55:10.464Z,17.50
2018-02-24T21:57:37.104Z,16.73
2018-02-24T22:00:04.795Z,16.20
2018-02-24T22:02:35.516Z,17.08
2018-02-24T22:05:21.576Z,17.40
2018-02-24T22:07:48.747Z,16.20
2018-02-24T22:10:15.559Z,15.10
2018-02-24T22:12:42.089Z,15.50
2018-02-24T22:15:08.540Z,15.70
2018-02-24T22:17:35.387Z,16.00
2018-02-24T22:20:02.337Z,17.42
2018-02-24T22:22:29.539Z,16.58
2018-02-24T22:24:56.578Z,14.87
2018-02-24T22:27:23.421Z,15.30
2018-02-24T22:29:49.976Z,15.05
2018-02-24T22:32:16.496Z,16.85
2018-02-24T22:34:43.952Z,17.10
2018-02-24T22:37:10.505Z,16.95
2018-02-24T22:39:37.307Z,16.65
2018-02-24T22:42:04.212Z,18.30
2018-02-24T22:44:30.683Z,16.37
2018-02-24T22:46:57.556Z,16.15
2018-02-24T22:49:24.321Z,17.50
2018-02-24T22:51:50.958Z,15.05
2018-02-24T22:54:17.401Z,13.82
2018-02-24T22:56:43.976Z,15.23
2018-02-24T22:59:10.784Z,17.00
2018-02-24T23:01:37.624Z,16.40
2018-02-24T23:04:04.191Z,15.13
2018-02-24T23:06:31.719Z,15.63
2018-02-24T23:14:03.253Z,15.90
2018-02-24T23:19:05.852Z,15.25
2018-02-24T23:27:24.545Z,14.93
2018-02-24T23:29:50.922Z,16.15
2018-02-24T23:32:18.424Z,15.13
2018-02-24T23:34:44.876Z,14.55
2018-02-24T23:37:11.472Z,15.90
2018-02-24T23:39:38.978Z,15.10
2018-02-24T23:42:07.755Z,15.55
2018-02-24T23:44:34.748Z,15.73
2018-02-24T23:47:01.675Z,13.80
2018-02-24T23:49:29.112Z,15.85
2018-02-24T23:51:55.584Z,16.30
2018-02-24T23:54:22.152Z,16.62
2018-02-24T23:56:48.769Z,15.57
2018-02-24T23:59:16.716Z,18.25
